Map

Track Data

SID SEASON NUMBER BASIN SUBBASIN NAME ISO_TIME NATURE LAT LON WMO_WIND WMO_PRES WMO_AGENCY TRACK_TYPE DIST2LAND LANDFALL IFLAG USA_AGENCY USA_ATCF_ID USA_LAT USA_LON USA_RECORD USA_STATUS USA_WIND USA_PRES USA_SSHS USA_R34_NE USA_R34_SE USA_R34_SW USA_R34_NW USA_R50_NE USA_R50_SE USA_R50_SW USA_R50_NW USA_R64_NE USA_R64_SE USA_R64_SW USA_R64_NW USA_POCI USA_ROCI USA_RMW USA_EYE TOKYO_LAT TOKYO_LON TOKYO_GRADE TOKYO_WIND TOKYO_PRES TOKYO_R50_DIR TOKYO_R50_LONG TOKYO_R50_SHORT TOKYO_R30_DIR TOKYO_R30_LONG TOKYO_R30_SHORT TOKYO_LAND CMA_LAT CMA_LON CMA_CAT CMA_WIND CMA_PRES HKO_LAT HKO_LON HKO_CAT HKO_WIND HKO_PRES NEWDELHI_LAT NEWDELHI_LON NEWDELHI_GRADE NEWDELHI_WIND NEWDELHI_PRES NEWDELHI_CI NEWDELHI_DP NEWDELHI_POCI REUNION_LAT REUNION_LON REUNION_TYPE REUNION_WIND REUNION_PRES REUNION_TNUM REUNION_CI REUNION_RMW REUNION_R34_NE REUNION_R34_SE REUNION_R34_SW REUNION_R34_NW REUNION_R50_NE REUNION_R50_SE REUNION_R50_SW REUNION_R50_NW REUNION_R64_NE REUNION_R64_SE REUNION_R64_SW REUNION_R64_NW BOM_LAT BOM_LON BOM_TYPE BOM_WIND BOM_PRES BOM_TNUM BOM_CI BOM_RMW BOM_R34_NE BOM_R34_SE BOM_R34_SW BOM_R34_NW BOM_R50_NE BOM_R50_SE BOM_R50_SW BOM_R50_NW BOM_R64_NE BOM_R64_SE BOM_R64_SW BOM_R64_NW BOM_ROCI BOM_POCI BOM_EYE BOM_POS_METHOD BOM_PRES_METHOD NADI_LAT NADI_LON NADI_CAT NADI_WIND NADI_PRES WELLINGTON_LAT WELLINGTON_LON WELLINGTON_WIND WELLINGTON_PRES DS824_LAT DS824_LON DS824_STAGE DS824_WIND DS824_PRES TD9636_LAT TD9636_LON TD9636_STAGE TD9636_WIND TD9636_PRES TD9635_LAT TD9635_LON TD9635_WIND TD9635_PRES TD9635_ROCI NEUMANN_LAT NEUMANN_LON NEUMANN_CLASS NEUMANN_WIND NEUMANN_PRES MLC_LAT MLC_LON MLC_CLASS MLC_WIND MLC_PRES USA_GUST BOM_GUST BOM_GUST_PER REUNION_GUST REUNION_GUST_PER USA_SEAHGT USA_SEARAD_NE USA_SEARAD_SE USA_SEARAD_SW USA_SEARAD_NW STORM_SPEED STORM_DIR
1933111S10081 1933 10 SI MM NOT_NAMED 1933-04-21 06:00:00 NR -10.1000 80.8000 main 1792 1792 _____O________ -1 -10.1000 80.8000 99 9.90000 5 247
1933111S10081 1933 10 SI MM NOT_NAMED 1933-04-21 09:00:00 NR -10.1927 80.5739 main 1804 1804 _____P________ -1 -10.1927 80.5739 99 5 247
1933111S10081 1933 10 SI MM NOT_NAMED 1933-04-21 12:00:00 NR -10.2861 80.3454 main 1815 1815 _____P________ -1 -10.2861 80.3454 99 5 248
1933111S10081 1933 10 SI MM NOT_NAMED 1933-04-21 15:00:00 NR -10.3807 80.1123 main 1827 1827 _____P________ -1 -10.3807 80.1123 99 5 248
1933111S10081 1933 10 SI MM NOT_NAMED 1933-04-21 18:00:00 NR -10.4775 79.8724 main 1839 1839 _____P________ -1 -10.4775 79.8724 99 5 248
1933111S10081 1933 10 SI MM NOT_NAMED 1933-04-21 21:00:00 NR -10.5771 79.6235 main 1852 1852 _____P________ -1 -10.5771 79.6235 99 5 248
1933111S10081 1933 10 SI MM NOT_NAMED 1933-04-22 00:00:00 NR -10.6802 79.3633 main 1864 1864 _____P________ -1 -10.6802 79.3633 99 6 248
1933111S10081 1933 10 SI MM NOT_NAMED 1933-04-22 03:00:00 NR -10.7876 79.0896 main 1878 1878 _____P________ -1 -10.7876 79.0896 99 6 248
1933111S10081 1933 10 SI MM NOT_NAMED 1933-04-22 06:00:00 NR -10.9000 78.8000 reunion main 1892 1892 _____O________ -1 -10.9000 78.8000 99 9.90000 6 249
1933111S10081 1933 10 SI MM NOT_NAMED 1933-04-22 09:00:00 NR -11.0178 78.4934 main 1907 1907 _____P________ -1 -11.0178 78.4934 99 7 249
1933111S10081 1933 10 SI MM NOT_NAMED 1933-04-22 12:00:00 NR -11.1400 78.1730 main 1923 1923 _____P________ -1 -11.1400 78.1730 99 7 249
1933111S10081 1933 10 SI MM NOT_NAMED 1933-04-22 15:00:00 NR -11.2654 77.8430 main 1951 1951 _____P________ -1 -11.2654 77.8430 99 7 249
1933111S10081 1933 10 SI MM NOT_NAMED 1933-04-22 18:00:00 NR -11.3929 77.5077 main 1968 1968 _____P________ -1 -11.3929 77.5077 99 7 249
1933111S10081 1933 10 SI MM NOT_NAMED 1933-04-22 21:00:00 NR -11.5213 77.1715 main 1985 1985 _____P________ -1 -11.5213 77.1715 99 7 249
1933111S10081 1933 10 SI MM NOT_NAMED 1933-04-23 00:00:00 NR -11.6494 76.8385 main 2005 2005 _____P________ -1 -11.6494 76.8385 99 7 248
1933111S10081 1933 10 SI MM NOT_NAMED 1933-04-23 03:00:00 NR -11.7760 76.5133 main 2034 2034 _____P________ -1 -11.7760 76.5133 99 7 248
1933111S10081 1933 10 SI MM NOT_NAMED 1933-04-23 06:00:00 NR -11.9000 76.2000 reunion main 2052 2052 _____O________ -1 -11.9000 76.2000 99 9.90000 6 248
1933111S10081 1933 10 SI MM NOT_NAMED 1933-04-23 09:00:00 NR -12.0129 75.9158 main 2071 2071 _____P________ -1 -12.0129 75.9158 99 6 248
1933111S10081 1933 10 SI MM NOT_NAMED 1933-04-23 12:00:00 NR -12.1233 75.6425 main 2091 2084 _____P________ -1 -12.1233 75.6425 99 6 247
1933111S10081 1933 10 SI MM NOT_NAMED 1933-04-23 15:00:00 NR -12.2325 75.3778 main 2084 2050 _____P________ -1 -12.2325 75.3778 99 6 247
1933111S10081 1933 10 SI MM NOT_NAMED 1933-04-23 18:00:00 NR -12.3415 75.1192 main 2050 2025 _____P________ -1 -12.3415 75.1192 99 5 246
1933111S10081 1933 10 SI MM NOT_NAMED 1933-04-23 21:00:00 NR -12.4517 74.8645 main 2020 1986 _____P________ -1 -12.4517 74.8645 99 5 246
1933111S10081 1933 10 SI MM NOT_NAMED 1933-04-24 00:00:00 NR -12.5640 74.6113 main 1986 1962 _____P________ -1 -12.5640 74.6113 99 5 245
1933111S10081 1933 10 SI MM NOT_NAMED 1933-04-24 03:00:00 NR -12.6797 74.3572 main 1962 1928 _____P________ -1 -12.6797 74.3572 99 6 245
1933111S10081 1933 10 SI MM NOT_NAMED 1933-04-24 06:00:00 NR -12.8000 74.1000 reunion main 1928 1894 _____O________ -1 -12.8000 74.1000 99 9.90000 6 244
1933111S10081 1933 10 SI MM NOT_NAMED 1933-04-24 09:00:00 NR -12.9359 73.8145 main 1894 1854 _____P________ -1 -12.9359 73.8145 99 6 244
1933111S10081 1933 10 SI MM NOT_NAMED 1933-04-24 12:00:00 NR -13.0770 73.5251 main 1854 1830 _____P________ -1 -13.0770 73.5251 99 6 243
1933111S10081 1933 10 SI MM NOT_NAMED 1933-04-24 15:00:00 NR -13.2209 73.2351 main 1820 1791 _____P________ -1 -13.2209 73.2351 99 6 243
1933111S10081 1933 10 SI MM NOT_NAMED 1933-04-24 18:00:00 NR -13.3653 72.9481 main 1781 1757 _____P________ -1 -13.3653 72.9481 99 6 243
1933111S10081 1933 10 SI MM NOT_NAMED 1933-04-24 21:00:00 NR -13.5077 72.6675 main 1757 1723 _____P________ -1 -13.5077 72.6675 99 6 242
1933111S10081 1933 10 SI MM NOT_NAMED 1933-04-25 00:00:00 NR -13.6459 72.3969 main 1723 1693 _____P________ -1 -13.6459 72.3969 99 6 242
1933111S10081 1933 10 SI MM NOT_NAMED 1933-04-25 03:00:00 NR -13.7774 72.1399 main 1684 1659 _____P________ -1 -13.7774 72.1399 99 5 242
1933111S10081 1933 10 SI MM NOT_NAMED 1933-04-25 06:00:00 NR -13.9000 71.9000 reunion main 1659 1635 _____O________ -1 -13.9000 71.9000 99 9.90000 5 242
1933111S10081 1933 10 SI MM NOT_NAMED 1933-04-25 09:00:00 NR -14.0120 71.6797 main 1635 1611 _____P________ -1 -14.0120 71.6797 99 5 242
1933111S10081 1933 10 SI MM NOT_NAMED 1933-04-25 12:00:00 NR -14.1142 71.4776 main 1611 1587 _____P________ -1 -14.1142 71.4776 99 4 243
1933111S10081 1933 10 SI MM NOT_NAMED 1933-04-25 15:00:00 NR -14.2080 71.2909 main 1587 1562 _____P________ -1 -14.2080 71.2909 99 4 243
1933111S10081 1933 10 SI MM NOT_NAMED 1933-04-25 18:00:00 NR -14.2948 71.1173 main 1562 1548 _____P________ -1 -14.2948 71.1173 99 4 243
1933111S10081 1933 10 SI MM NOT_NAMED 1933-04-25 21:00:00 NR -14.3760 70.9539 main 1548 1528 _____P________ -1 -14.3760 70.9539 99 3 243
1933111S10081 1933 10 SI MM NOT_NAMED 1933-04-26 00:00:00 NR -14.4531 70.7984 main 1523 1514 _____P________ -1 -14.4531 70.7984 99 3 243
1933111S10081 1933 10 SI MM NOT_NAMED 1933-04-26 03:00:00 NR -14.5273 70.6479 main 1504 1489 _____P________ -1 -14.5273 70.6479 99 3 243
1933111S10081 1933 10 SI MM NOT_NAMED 1933-04-26 06:00:00 NR -14.6000 70.5000 reunion main 1489 _____O________ -1 -14.6000 70.5000 99 9.90000 3 243

About IBTrACS Database

This database is a web-friendly format of International Best Track Archive for Climate Stewardship (IBTrACS), a global best track data archive curated by NOAA dating back to 1842.

Updated: 2021-10-08